createdAt,value
2023-02-27T07:51:27.298Z,96.84
2023-02-27T07:54:00.527Z,96.76
2023-02-27T07:56:29.582Z,96.06
2023-02-27T07:58:59.999Z,96.41
2023-02-27T08:01:28.773Z,94.62
2023-02-27T08:03:57.454Z,95.18
2023-02-27T08:06:26.377Z,94.28
2023-02-27T08:08:55.238Z,93.09
2023-02-27T08:11:24.020Z,93.87
2023-02-27T08:14:01.332Z,94.21
2023-02-27T08:16:31.955Z,94.14
2023-02-27T08:19:01.674Z,94.04
2023-02-27T08:21:30.523Z,94.08
2023-02-27T08:23:59.486Z,94.95
2023-02-27T08:26:28.245Z,95.01
2023-02-27T08:28:58.191Z,93.70
2023-02-27T08:31:27.803Z,94.36
2023-02-27T08:34:09.463Z,93.95
2023-02-27T08:36:39.860Z,92.65
2023-02-27T08:39:09.778Z,93.71
2023-02-27T08:41:38.519Z,92.59
2023-02-27T08:44:07.030Z,91.80
2023-02-27T08:46:35.618Z,91.58
2023-02-27T08:49:04.200Z,91.08
2023-02-27T08:51:32.784Z,91.62
2023-02-27T08:54:01.341Z,91.57
2023-02-27T08:56:30.150Z,91.92
2023-02-27T08:59:00.809Z,91.69
2023-02-27T09:01:34.593Z,91.15
2023-02-27T09:04:04.652Z,91.05
2023-02-27T09:06:35.085Z,91.62
2023-02-27T09:09:04.906Z,91.76
2023-02-27T09:11:33.925Z,92.26
2023-02-27T09:14:02.457Z,91.96
2023-02-27T09:16:31.447Z,92.02
2023-02-27T09:19:02.627Z,92.34
2023-02-27T09:21:31.569Z,92.55
2023-02-27T09:24:07.393Z,91.63
2023-02-27T09:26:46.689Z,92.06
2023-02-27T09:29:15.610Z,92.10
2023-02-27T09:31:44.926Z,93.11
2023-02-27T09:34:16.558Z,92.70
2023-02-27T09:36:45.404Z,92.62
2023-02-27T09:39:14.029Z,91.92
2023-02-27T09:41:51.128Z,92.18
2023-02-27T09:44:47.263Z,91.63
2023-02-27T09:47:31.157Z,91.89
2023-02-27T09:50:12.151Z,91.98
2023-02-27T09:52:40.918Z,90.83
2023-02-27T09:55:21.845Z,90.66
2023-02-27T09:58:04.630Z,91.15
2023-02-27T10:00:51.166Z,91.61
2023-02-27T10:03:35.900Z,92.68
2023-02-27T10:06:25.397Z,91.97
2023-02-27T10:09:06.067Z,90.65
2023-02-27T10:11:53.199Z,89.67
2023-02-27T10:14:34.101Z,90.69
2023-02-27T10:17:06.398Z,91.28
2023-02-27T10:19:38.360Z,90.70
2023-02-27T10:22:13.768Z,89.91
2023-02-27T10:24:52.252Z,89.96
2023-02-27T10:27:22.684Z,89.23
2023-02-27T10:29:53.640Z,88.50
2023-02-27T10:32:24.115Z,88.28
2023-02-27T10:35:06.797Z,88.93
2023-02-27T10:37:48.621Z,89.34
2023-02-27T10:40:18.060Z,89.45
2023-02-27T10:42:47.807Z,89.61
2023-02-27T10:45:16.905Z,89.06
2023-02-27T10:47:46.389Z,88.31
2023-02-27T10:50:36.774Z,88.77
2023-02-27T10:53:17.439Z,89.20
2023-02-27T10:55:58.462Z,89.65
2023-02-27T10:58:34.991Z,89.73
2023-02-27T11:01:08.279Z,89.33
2023-02-27T11:03:42.291Z,89.20
2023-02-27T11:06:27.146Z,88.79
2023-02-27T11:09:23.279Z,88.24
2023-02-27T11:11:53.997Z,88.57
2023-02-27T11:14:30.399Z,88.23
2023-02-27T11:17:01.762Z,88.00
2023-02-27T11:19:36.309Z,88.21
2023-02-27T11:22:17.203Z,87.96
2023-02-27T11:24:47.406Z,87.71
2023-02-27T11:27:26.731Z,87.65
2023-02-27T11:30:02.118Z,87.45
2023-02-27T11:32:49.376Z,88.16
2023-02-27T11:35:25.387Z,87.97
2023-02-27T11:38:01.332Z,88.08
2023-02-27T11:40:56.663Z,87.43
2023-02-27T11:43:37.701Z,88.45
2023-02-27T11:46:43.030Z,89.16
2023-02-27T11:49:10.548Z,89.17
2023-02-27T11:51:51.698Z,89.09
2023-02-27T11:54:42.972Z,88.17
2023-02-27T11:57:35.805Z,88.20
2023-02-27T12:00:08.132Z,87.48
2023-02-27T12:02:48.507Z,86.88
2023-02-27T12:05:23.553Z,87.25
2023-02-27T12:08:07.901Z,86.35
2023-02-27T12:10:48.595Z,84.01
2023-02-27T12:13:30.564Z,83.41
2023-02-27T12:16:27.512Z,82.63
2023-02-27T12:19:18.540Z,83.74
2023-02-27T12:21:54.110Z,82.92
2023-02-27T12:24:26.772Z,83.15
2023-02-27T12:27:17.682Z,82.57
2023-02-27T12:30:02.983Z,82.99
2023-02-27T12:32:40.799Z,82.49
2023-02-27T12:35:33.319Z,81.49
2023-02-27T12:38:07.757Z,82.02
2023-02-27T12:40:42.614Z,82.16
2023-02-27T12:43:59.577Z,81.13
2023-02-27T12:46:46.908Z,80.95
2023-02-27T12:49:28.696Z,80.86
2023-02-27T12:52:38.148Z,81.96
2023-02-27T12:55:34.221Z,81.73
2023-02-27T12:58:46.177Z,81.06
2023-02-27T13:01:29.507Z,82.21
2023-02-27T13:04:26.665Z,82.02
2023-02-27T13:07:31.766Z,82.12
2023-02-27T13:10:25.229Z,83.14
2023-02-27T13:13:09.621Z,82.64
2023-02-27T13:15:48.963Z,82.23
2023-02-27T13:18:40.868Z,82.30
2023-02-27T13:21:34.620Z,81.85
2023-02-27T13:24:12.530Z,82.95
2023-02-27T13:26:58.270Z,82.75
2023-02-27T13:29:38.218Z,82.27
2023-02-27T13:32:43.569Z,82.91
2023-02-27T13:36:06.769Z,82.92
2023-02-27T13:39:04.332Z,83.27
2023-02-27T13:42:06.272Z,83.87
2023-02-27T13:44:43.728Z,83.29
2023-02-27T13:48:02.873Z,82.40
2023-02-27T13:50:46.178Z,83.06
2023-02-27T13:56:41.443Z,84.03
2023-02-27T13:59:41.072Z,83.46
2023-02-27T14:02:59.887Z,83.46
2023-02-27T14:05:47.525Z,83.58
2023-02-27T14:08:55.696Z,83.66
2023-02-27T14:12:06.748Z,83.60
2023-02-27T14:15:08.288Z,83.09
2023-02-27T14:17:54.661Z,83.32
2023-02-27T14:21:13.489Z,83.34
2023-02-27T14:24:07.811Z,84.35
2023-02-27T14:26:57.315Z,84.00
2023-02-27T14:29:43.786Z,83.57
2023-02-27T14:33:00.865Z,83.37
2023-02-27T14:35:43.783Z,83.42
2023-02-27T14:39:04.304Z,83.20
2023-02-27T14:41:59.330Z,82.51
2023-02-27T14:44:43.161Z,82.29
2023-02-27T14:47:39.405Z,82.97
2023-02-27T14:50:37.432Z,83.05
2023-02-27T14:53:22.363Z,83.21
2023-02-27T14:56:20.848Z,83.24
2023-02-27T15:05:16.932Z,82.81
2023-02-27T15:08:08.753Z,82.87
2023-02-27T15:10:44.067Z,83.09
2023-02-27T15:13:58.168Z,82.55
2023-02-27T15:16:59.893Z,82.52
2023-02-27T15:19:55.711Z,81.51
2023-02-27T15:22:41.234Z,82.18
2023-02-27T15:26:00.763Z,82.65
2023-02-27T15:29:01.019Z,82.49
2023-02-27T15:34:36.852Z,84.33
2023-02-27T15:38:00.721Z,84.84
2023-02-27T15:40:57.897Z,84.63
2023-02-27T15:43:29.704Z,84.42
2023-02-27T15:46:17.475Z,84.63
2023-02-27T15:48:50.234Z,84.32
2023-02-27T15:51:19.222Z,84.41
2023-02-27T15:53:50.574Z,84.72
2023-02-27T15:56:35.105Z,84.45
2023-02-27T15:59:05.632Z,83.88
2023-02-27T16:01:40.718Z,83.67
2023-02-27T16:04:32.069Z,83.73
2023-02-27T16:07:39.034Z,83.61
2023-02-27T16:10:34.937Z,83.05
2023-02-27T16:14:05.821Z,82.85
2023-02-27T16:17:05.783Z,83.82
2023-02-27T16:19:41.574Z,84.07
2023-02-27T16:22:33.927Z,84.46
2023-02-27T16:25:49.476Z,83.78
2023-02-27T16:28:19.236Z,83.98
2023-02-27T16:30:58.150Z,83.51
2023-02-27T16:33:47.928Z,84.29
2023-02-27T16:36:42.071Z,84.74
2023-02-27T16:39:35.129Z,84.17
2023-02-27T16:42:38.348Z,84.26
2023-02-27T16:45:19.221Z,84.71
2023-02-27T16:47:52.639Z,85.03
2023-02-27T16:53:36.387Z,84.83
2023-02-27T16:56:23.585Z,85.23
2023-02-27T16:59:03.674Z,85.21
2023-02-27T17:01:52.853Z,84.98
2023-02-27T17:04:26.258Z,84.88
2023-02-27T17:07:04.746Z,85.13
2023-02-27T17:09:37.392Z,85.25
2023-02-27T17:12:11.739Z,85.38
2023-02-27T17:14:44.849Z,85.42
2023-02-27T17:17:18.356Z,85.14
2023-02-27T17:19:49.924Z,85.05
2023-02-27T17:22:20.362Z,85.08
2023-02-27T17:24:51.811Z,85.96
2023-02-27T17:27:21.586Z,86.18
2023-02-27T17:29:55.152Z,86.43
2023-02-27T17:32:26.473Z,85.51
2023-02-27T17:35:06.750Z,84.94
2023-02-27T17:37:37.524Z,85.18
2023-02-27T17:40:08.709Z,84.90
2023-02-27T17:42:40.531Z,85.03
2023-02-27T17:45:13.629Z,84.95
2023-02-27T17:47:48.076Z,85.61
2023-02-27T17:50:23.685Z,85.72
2023-02-27T17:52:52.253Z,85.19
2023-02-27T17:55:22.867Z,85.26
2023-02-27T17:57:51.483Z,85.74
2023-02-27T18:00:22.983Z,85.70
2023-02-27T18:02:52.238Z,85.49
2023-02-27T18:05:21.912Z,85.58
2023-02-27T18:07:55.591Z,85.54
2023-02-27T18:10:25.436Z,85.28
2023-02-27T18:12:54.909Z,85.44
2023-02-27T18:15:26.572Z,85.23
2023-02-27T18:17:59.176Z,84.87
2023-02-27T18:20:31.862Z,84.25
2023-02-27T18:23:02.156Z,84.54
2023-02-27T18:25:31.386Z,84.84
2023-02-27T18:28:01.429Z,84.92
2023-02-27T18:30:31.134Z,85.28
2023-02-27T18:33:00.369Z,85.18
2023-02-27T18:35:29.621Z,85.22
2023-02-27T18:37:59.408Z,85.13
2023-02-27T18:40:28.688Z,84.90
2023-02-27T18:42:58.616Z,84.97
2023-02-27T18:45:29.724Z,84.89
2023-02-27T18:47:58.792Z,85.89
2023-02-27T18:50:27.929Z,85.19
2023-02-27T18:52:57.020Z,85.22
2023-02-27T18:55:26.778Z,84.79
2023-02-27T18:57:56.420Z,84.76
2023-02-27T19:00:24.996Z,85.66
2023-02-27T19:02:54.055Z,85.59
2023-02-27T19:05:23.915Z,85.02
2023-02-27T19:07:52.987Z,84.45
2023-02-27T19:10:21.557Z,84.87
2023-02-27T19:12:51.446Z,85.35
2023-02-27T19:15:20.108Z,85.54
2023-02-27T19:17:49.566Z,86.19
2023-02-27T19:20:18.706Z,86.11
2023-02-27T19:22:47.304Z,85.50
2023-02-27T19:25:15.847Z,84.88
2023-02-27T19:27:46.152Z,84.28
2023-02-27T19:30:15.355Z,83.93
2023-02-27T19:32:44.134Z,84.60
2023-02-27T19:35:16.556Z,84.62
2023-02-27T19:37:54.608Z,85.02
2023-02-27T19:40:27.146Z,85.01
2023-02-27T19:42:55.897Z,84.82
2023-02-27T19:45:26.144Z,85.67
2023-02-27T19:47:56.165Z,86.17
2023-02-27T19:50:30.424Z,85.83
2023-02-27T19:53:00.873Z,85.98
2023-02-27T19:55:29.464Z,87.01
2023-02-27T19:57:59.924Z,86.89
2023-02-27T20:00:31.097Z,86.37
2023-02-27T20:03:06.778Z,85.59
2023-02-27T20:05:38.465Z,86.04
2023-02-27T20:08:09.082Z,86.95
2023-02-27T20:10:40.650Z,86.40
2023-02-27T20:13:10.774Z,86.04
2023-02-27T20:15:39.298Z,85.93
2023-02-27T20:18:07.842Z,85.95
2023-02-27T20:20:38.894Z,85.54
2023-02-27T20:23:07.498Z,85.42
2023-02-27T20:25:39.742Z,85.73
2023-02-27T20:28:11.559Z,85.97
2023-02-27T20:30:40.196Z,86.03
2023-02-27T20:33:08.835Z,86.35
2023-02-27T20:35:38.675Z,86.05
2023-02-27T20:38:10.276Z,85.37
2023-02-27T20:40:38.946Z,86.23
2023-02-27T20:43:13.844Z,86.64
2023-02-27T20:45:43.201Z,87.03
2023-02-27T20:48:11.835Z,86.75
2023-02-27T20:50:40.497Z,86.04
2023-02-27T20:53:17.548Z,86.17
2023-02-27T20:55:49.828Z,85.67
2023-02-27T20:58:20.731Z,85.69
2023-02-27T21:00:49.243Z,86.23
2023-02-27T21:03:20.401Z,87.17
2023-02-27T21:05:52.932Z,87.47
2023-02-27T21:08:21.909Z,86.92
2023-02-27T21:10:53.914Z,86.97
2023-02-27T21:13:24.084Z,86.80
2023-02-27T21:15:53.117Z,86.77
2023-02-27T21:18:21.820Z,86.14
2023-02-27T21:20:54.912Z,86.05
2023-02-27T21:23:24.430Z,85.81
2023-02-27T21:25:55.323Z,85.87
2023-02-27T21:28:26.715Z,86.36
2023-02-27T21:30:55.257Z,86.17
2023-02-27T21:33:23.879Z,85.89
2023-02-27T21:35:52.435Z,86.36
2023-02-27T21:38:21.078Z,86.24
2023-02-27T21:40:51.104Z,86.27
2023-02-27T21:43:25.437Z,86.23
2023-02-27T21:45:56.171Z,85.77
2023-02-27T21:48:26.988Z,85.51
2023-02-27T21:51:01.577Z,85.47
2023-02-27T21:53:30.686Z,86.21
2023-02-27T21:56:06.055Z,86.29
2023-02-27T21:58:37.796Z,86.54
2023-02-27T22:01:22.386Z,86.06
2023-02-27T22:03:52.941Z,85.97
2023-02-27T22:06:28.823Z,86.05
2023-02-27T22:09:06.401Z,87.02
2023-02-27T22:11:37.459Z,87.49
2023-02-27T22:14:12.180Z,87.03
2023-02-27T22:16:49.101Z,87.57
2023-02-27T22:19:22.136Z,87.67
2023-02-27T22:21:50.841Z,86.68
2023-02-27T22:24:19.464Z,86.50
2023-02-27T22:26:49.751Z,86.62
2023-02-27T22:29:21.839Z,86.46
2023-02-27T22:31:51.483Z,87.76
2023-02-27T22:34:28.323Z,87.37
2023-02-27T22:36:58.202Z,86.88
2023-02-27T22:39:29.694Z,87.01
2023-02-27T22:41:59.061Z,86.59
2023-02-27T22:44:34.035Z,86.67
2023-02-27T22:47:05.144Z,86.52
2023-02-27T22:49:40.026Z,86.15
2023-02-27T22:52:10.807Z,86.66
2023-02-27T22:54:45.198Z,87.57
2023-02-27T22:57:13.753Z,87.70
2023-02-27T22:59:42.273Z,87.22
2023-02-27T23:02:12.090Z,87.88
2023-02-27T23:04:41.183Z,87.61
2023-02-27T23:07:12.869Z,87.50
2023-02-27T23:09:41.455Z,87.28
2023-02-27T23:12:13.695Z,86.94
2023-02-27T23:14:44.806Z,86.93
2023-02-27T23:17:18.568Z,86.77
2023-02-27T23:19:47.176Z,85.97
2023-02-27T23:22:18.045Z,85.82
2023-02-27T23:24:46.613Z,86.26
2023-02-27T23:27:25.704Z,86.54
2023-02-27T23:29:55.441Z,86.76
2023-02-27T23:32:26.760Z,86.92
2023-02-27T23:35:04.266Z,86.94
2023-02-27T23:37:35.792Z,87.47
2023-02-27T23:40:07.912Z,87.34
2023-02-27T23:42:42.144Z,87.21
2023-02-27T23:45:23.284Z,87.59
2023-02-27T23:48:00.667Z,87.76
2023-02-27T23:50:41.217Z,87.36
2023-02-27T23:53:19.149Z,87.67
2023-02-27T23:55:48.598Z,87.61
2023-02-27T23:58:17.159Z,87.02
